Accueil
METAR-TAF:

METAR-TAF

Aéroports :

Circuit de Zeltweg

Zeltweg, Autriche

latitude: 47-12N, longitude: 014-45E, altitude: 677 m

Observation

Le bulletin a été fait il y a 34 minutes, à 23:50 UTC
Vent 2 kt de direction variable
Température 19°C
Humidité 88%
Pression 1015 hPa
Visibilité 10 km ou plus
Ciel clair

METAR: LOXZ 152350Z VRB02KT 9999 SKC 19/17 Q1015

Heure: 02:24 (00:24 UTC)

Prévision

Le bulletin a été fait il y a 13 heures et 9 minutes, à 11:15 UTC
Prévision valable du 15 à 12 UTC au 15 à 21 UTC
Vent 8 kt de est/sud-est
Visibilité 10 km ou plus
Quelques nuages à une hauteur de 5000 ft
Nuages épars à une hauteur de 30000 ft

TAF: LOXZ 151115Z 1512/1521 12008KT 9999 FEW050 SCT300

Observations et prévisions météorologiques de plus de 4000 aéroports (messages METAR et TAF).

Les stations disponibles sont représentées par des disques jaunes et rouges sur la carte.

Passer la souris dessus pour voir le nom de la station.

Cliquer dessus pour voir les observations et prévisions météorologiques.

Pour changer de carte: cliquez sur les boutons verts avec une croix noire pour zoomer, sur le bouton vert avec un tiret pour effectuer un zoom arrière, ou sur les flèches vertes pour les cartes adjacentes.


METAR-TAF: